Terminal Aerodrome Forecast
Issued by NWS

Home | Current Version | Previous Version | Text Only | Print | Product List | Glossary On
Versions: 1 2 3 4 5 6 7 8 9 10 11 12 13 14 15 16 17 18 19 20 21 22 23 24 25 26 27 28 29 30 31 32 33 34 35 36 37 38 39 40 41 42 43 44 45 46 47 48 49
000
FTAK31 PAFA 201734
TAFASC
TAF
PASC 201734Z 2018/2118 08038G48KT 5SM -FZDZSN BLSN BR BKN007 OVC015
     FM210600 08040G48KT 3/4SM -FZDZSN BLSN BR OVC007
     FM211200 08035G45KT 5SM -FZDZSN BLSN BR BKN007 OVC015=

USA.gov is the U.S. government's official web portal to all federal, state and local government web resources and services.